Time;durP1;ratioP1;P1;durP2;ratioP2;P2;SDS_P1;SDS_P2;PMS_P1;PMS_P2;Temp;Humidity;BMP_temperature;BMP_pressure;BME280_temperature;BME280_humidity;BME280_pressure;Samples;Min_cycle;Max_cycle;Signal;HPM_P1;HPM_P2
2022/12/19 05:31:21;;;;;;;5.13;3.72;;;10.10;88.90;;;;;;5537156;23;20050;-78
2022/12/19 05:33:47;;;;;;;4.53;3.67;;;10.20;89.00;;;;;;4967546;28;20030;-78
2022/12/19 05:36:15;;;;;;;9.23;3.97;;;10.20;89.00;;;;;;4960993;28;20111;-78
2022/12/19 05:38:41;;;;;;;5.93;3.20;;;10.20;88.90;;;;;;4957376;28;20031;-78
2022/12/19 05:41:15;;;;;;;5.65;3.45;;;10.20;89.00;;;;;;4970840;28;20529;-78
2022/12/19 05:43:41;;;;;;;5.10;3.60;;;10.10;88.80;;;;;;4957039;28;20155;-78
2022/12/19 05:46:07;;;;;;;6.88;3.17;;;10.20;88.90;;;;;;4955894;28;20027;-78
2022/12/19 05:48:34;;;;;;;5.53;3.35;;;10.20;88.90;;;;;;4955620;28;20027;-77
2022/12/19 05:51:00;;;;;;;7.57;4.07;;;10.20;88.90;;;;;;4957179;28;20490;-78
2022/12/19 05:53:29;;;;;;;7.85;4.35;;;10.10;88.90;;;;;;4964228;28;20026;-77
2022/12/19 05:56:04;;;;;;;4.50;3.63;;;10.20;88.90;;;;;;4962123;28;20038;-75
2022/12/19 05:58:30;;;;;;;5.07;2.97;;;10.10;88.80;;;;;;4957196;28;20045;-79
2022/12/19 06:01:02;;;;;;;8.23;3.78;;;10.20;89.00;;;;;;4972848;28;20570;-78
2022/12/19 06:03:27;;;;;;;6.55;3.83;;;10.20;88.90;;;;;;4963636;28;20586;-77
2022/12/19 06:05:53;;;;;;;6.90;4.18;;;10.20;88.80;;;;;;4980070;28;20062;-79
2022/12/19 06:08:18;;;;;;;8.70;3.58;;;10.20;88.90;;;;;;4988301;28;20482;-78
2022/12/19 06:10:44;;;;;;;6.40;4.00;;;10.20;88.90;;;;;;4963823;28;20037;-78
2022/12/19 06:13:10;;;;;;;7.45;3.97;;;10.20;89.00;;;;;;4998098;28;20045;-79
2022/12/19 06:15:35;;;;;;;6.93;2.58;;;10.20;88.90;;;;;;4999854;28;20549;-80
2022/12/19 06:18:01;;;;;;;4.43;2.65;;;10.20;89.00;;;;;;4987480;28;20035;-78
2022/12/19 06:20:26;;;;;;;9.68;4.65;;;10.20;89.10;;;;;;4986038;28;20034;-79
2022/12/19 06:22:52;;;;;;;6.15;3.90;;;10.20;89.10;;;;;;4990947;28;20398;-78
2022/12/19 06:25:18;;;;;;;4.35;3.25;;;10.30;89.00;;;;;;4967910;28;20697;-79
2022/12/19 06:27:43;;;;;;;4.85;2.90;;;10.30;88.90;;;;;;4960542;28;20039;-78
2022/12/19 06:30:10;;;;;;;5.45;2.97;;;10.30;88.80;;;;;;4960465;28;20061;-78
2022/12/19 06:32:35;;;;;;;7.60;4.40;;;10.30;88.70;;;;;;4971349;28;20065;-79
2022/12/19 06:35:01;;;;;;;4.15;2.70;;;10.40;88.60;;;;;;4974639;28;20118;-79
2022/12/19 06:37:26;;;;;;;8.88;3.05;;;10.40;88.60;;;;;;4984765;28;20527;-79
2022/12/19 06:39:52;;;;;;;3.95;2.92;;;10.40;88.60;;;;;;4988061;28;20415;-78
2022/12/19 06:42:23;;;;;;;7.47;3.45;;;10.30;88.50;;;;;;4967132;28;20051;-79
2022/12/19 06:44:53;;;;;;;4.80;3.13;;;10.30;88.50;;;;;;4966675;28;20039;-79
2022/12/19 06:47:20;;;;;;;4.60;2.35;;;10.30;88.70;;;;;;4960858;28;20031;-78
2022/12/19 06:49:47;;;;;;;6.78;3.30;;;10.30;88.70;;;;;;4977259;28;20054;-79
2022/12/19 06:52:13;;;;;;;3.85;3.08;;;10.30;88.70;;;;;;4978114;28;20023;-79
2022/12/19 06:54:40;;;;;;;6.38;3.90;;;10.30;88.70;;;;;;4977932;28;20033;-78
2022/12/19 06:57:06;;;;;;;5.15;3.65;;;10.30;88.90;;;;;;4975850;28;20027;-78
2022/12/19 06:59:32;;;;;;;5.88;3.08;;;10.30;88.80;;;;;;4959985;28;20398;-78
2022/12/19 07:02:04;;;;;;;5.30;3.85;;;10.30;88.80;;;;;;4977975;28;20022;-78
2022/12/19 07:04:34;;;;;;;6.63;3.58;;;10.40;88.70;;;;;;4968603;28;20030;-78
2022/12/19 07:07:00;;;;;;;;;;;10.30;88.50;;;;;;4967804;28;20026;-79
2022/12/19 07:09:28;;;;;;;5.13;2.40;;;10.30;88.70;;;;;;4969980;28;19957;-79
2022/12/19 07:11:54;;;;;;;7.38;2.63;;;10.40;88.60;;;;;;4974052;28;20015;-79
2022/12/19 07:14:20;;;;;;;11.52;3.42;;;10.30;88.60;;;;;;4974918;28;20418;-76
2022/12/19 07:16:46;;;;;;;6.90;3.20;;;10.40;88.60;;;;;;4974493;28;20042;-77
2022/12/19 07:19:13;;;;;;;6.80;3.22;;;10.40;88.70;;;;;;4959714;28;20077;-80
2022/12/19 07:21:39;;;;;;;6.00;3.15;;;10.40;88.60;;;;;;4965371;28;20414;-77
2022/12/19 07:24:05;;;;;;;2.38;2.00;;;10.40;88.70;;;;;;4985580;28;20042;-77
2022/12/19 07:26:31;;;;;;;12.30;3.67;;;10.40;88.70;;;;;;4973764;28;20445;-77
2022/12/19 07:28:58;;;;;;;4.35;2.60;;;10.50;88.80;;;;;;4977731;28;20023;-78
2022/12/19 07:31:24;;;;;;;8.07;4.18;;;10.50;88.80;;;;;;4967904;28;20050;-77
2022/12/19 07:33:50;;;;;;;9.73;3.80;;;10.50;88.70;;;;;;4967085;28;20078;-77
2022/12/19 07:36:15;;;;;;;5.45;2.90;;;10.50;88.70;;;;;;4968621;28;20031;-77
2022/12/19 07:38:41;;;;;;;5.88;3.00;;;10.50;88.60;;;;;;4967443;28;20027;-77
2022/12/19 07:41:07;;;;;;;5.25;2.75;;;10.50;88.60;;;;;;4966082;28;20038;-77
2022/12/19 07:43:32;;;;;;;10.48;3.53;;;10.60;88.60;;;;;;4966955;28;20020;-77
2022/12/19 07:45:58;;;;;;;12.02;3.40;;;10.50;88.60;;;;;;4968653;28;20082;-77
2022/12/19 07:48:24;;;;;;;4.75;3.30;;;10.50;88.60;;;;;;4967536;28;20024;-77
2022/12/19 07:50:50;;;;;;;11.32;3.78;;;10.60;88.70;;;;;;4967868;28;20066;-77
2022/12/19 07:53:15;;;;;;;5.10;2.85;;;10.50;88.70;;;;;;4971124;28;20027;-77
2022/12/19 07:55:41;;;;;;;5.38;3.22;;;10.50;88.80;;;;;;4967039;28;20028;-77
2022/12/19 07:58:10;;;;;;;3.97;2.97;;;10.50;88.60;;;;;;4967084;28;20383;-77
2022/12/19 08:00:36;;;;;;;5.90;2.88;;;10.60;88.80;;;;;;4969007;28;20024;-77
2022/12/19 08:03:02;;;;;;;8.00;2.28;;;10.60;88.70;;;;;;4967925;28;20078;-77
2022/12/19 08:05:28;;;;;;;5.07;3.00;;;10.50;88.90;;;;;;4966328;28;20027;-77
2022/12/19 08:07:53;;;;;;;7.60;3.80;;;10.50;89.00;;;;;;4967078;28;20107;-77
2022/12/19 08:10:21;;;;;;;3.20;2.53;;;10.60;89.10;;;;;;4968441;28;20062;-77
2022/12/19 08:12:47;;;;;;;2.95;2.42;;;10.60;89.10;;;;;;4966698;28;20159;-77
2022/12/19 08:15:13;;;;;;;6.72;3.95;;;10.60;89.20;;;;;;4966356;28;20134;-77
2022/12/19 08:17:41;;;;;;;5.20;2.42;;;10.60;89.30;;;;;;4965377;28;20078;-77
2022/12/19 08:20:08;;;;;;;8.55;3.85;;;10.60;89.20;;;;;;4966482;28;20035;-77
2022/12/19 08:22:34;;;;;;;3.83;2.60;;;10.70;89.20;;;;;;4972557;28;20019;-77
2022/12/19 08:24:59;;;;;;;7.32;4.20;;;10.60;89.20;;;;;;4975573;28;20031;-78
2022/12/19 08:27:26;;;;;;;7.15;3.15;;;10.70;89.20;;;;;;4976554;28;20402;-78
2022/12/19 08:29:51;;;;;;;6.55;3.55;;;10.70;89.20;;;;;;4972909;28;20031;-79
2022/12/19 08:32:18;;;;;;;6.13;3.03;;;10.60;89.60;;;;;;4974587;28;20042;-78
2022/12/19 08:34:44;;;;;;;5.22;2.72;;;10.60;89.50;;;;;;4969793;28;20042;-77
2022/12/19 08:37:09;;;;;;;9.07;4.13;;;10.60;89.50;;;;;;4956912;29;20506;-76
2022/12/19 08:39:35;;;;;;;6.80;2.75;;;10.70;89.50;;;;;;4958238;28;20035;-77
2022/12/19 08:42:01;;;;;;;9.52;3.72;;;10.70;89.50;;;;;;4960401;28;20030;-77
2022/12/19 08:44:27;;;;;;;8.85;3.63;;;10.70;89.40;;;;;;4957993;28;20031;-78
2022/12/19 08:46:52;;;;;;;5.03;3.70;;;10.80;89.50;;;;;;4957972;28;20080;-79
2022/12/19 08:49:18;;;;;;;8.80;3.45;;;10.80;89.50;;;;;;4960353;28;20023;-80
2022/12/19 08:51:44;;;;;;;10.82;3.47;;;10.80;89.30;;;;;;4958096;28;20050;-79
2022/12/19 08:54:11;;;;;;;5.43;3.03;;;10.80;89.40;;;;;;4958128;28;20062;-79
2022/12/19 08:56:37;;;;;;;4.10;2.65;;;10.80;89.50;;;;;;4957981;28;20106;-78
2022/12/19 08:59:03;;;;;;;3.75;2.53;;;10.80;89.40;;;;;;4957812;28;20036;-78
2022/12/19 09:01:28;;;;;;;4.72;2.65;;;10.80;89.50;;;;;;4962977;28;20122;-77
2022/12/19 09:03:57;;;;;;;8.48;3.63;;;10.80;89.40;;;;;;4977128;28;20121;-77
2022/12/19 09:06:23;;;;;;;4.82;3.03;;;10.80;89.60;;;;;;4963744;28;20051;-78
2022/12/19 09:08:48;;;;;;;4.88;3.40;;;10.80;89.60;;;;;;4957607;28;20027;-78
2022/12/19 09:11:16;;;;;;;6.90;3.38;;;10.80;89.50;;;;;;4976951;28;20026;-79
2022/12/19 09:13:43;;;;;;;6.05;3.05;;;10.80;89.60;;;;;;4983467;28;20031;-78
2022/12/19 09:16:20;;;;;;;7.90;3.58;;;10.80;89.60;;;;;;4966085;28;20521;-77
2022/12/19 09:18:49;;;;;;;10.52;4.28;;;10.80;89.70;;;;;;4957385;28;20506;-77
2022/12/19 09:21:16;;;;;;;6.72;4.85;;;10.80;89.70;;;;;;4967641;28;20025;-76
2022/12/19 09:23:42;;;;;;;5.82;3.10;;;10.80;89.50;;;;;;4980898;28;20091;-81
2022/12/19 09:26:11;;;;;;;6.63;3.33;;;10.80;89.60;;;;;;4962235;28;20394;-75
2022/12/19 09:28:38;;;;;;;9.93;4.35;;;10.80;89.60;;;;;;4962811;28;20035;-75
2022/12/19 09:31:10;;;;;;;6.75;2.92;;;10.80;89.60;;;;;;4973112;28;20461;-74
2022/12/19 09:33:36;;;;;;;5.30;3.33;;;10.90;89.60;;;;;;4973852;28;20034;-75
2022/12/19 09:36:02;;;;;;;4.40;3.22;;;10.80;89.60;;;;;;4973286;28;20037;-74
2022/12/19 09:38:30;;;;;;;7.82;3.40;;;10.80;89.70;;;;;;4976380;28;20185;-73
2022/12/19 09:41:18;;;;;;;10.48;3.10;;;10.90;89.70;;;;;;4974631;28;20046;-74
2022/12/19 09:44:01;;;;;;;4.85;2.90;;;10.80;89.90;;;;;;4972797;28;20030;-75
2022/12/19 09:46:53;;;;;;;5.85;4.38;;;10.90;89.90;;;;;;4979125;28;20026;-74
2022/12/19 09:49:29;;;;;;;5.38;3.55;;;10.80;89.90;;;;;;4988164;28;20026;-74
2022/12/19 09:52:05;;;;;;;5.80;3.78;;;10.80;89.90;;;;;;4982097;28;20030;-74
2022/12/19 09:54:34;;;;;;;10.95;4.35;;;10.80;90.10;;;;;;4983990;28;20540;-76
2022/12/19 09:57:04;;;;;;;3.30;2.65;;;10.90;90.00;;;;;;4985893;28;20053;-73
2022/12/19 09:59:47;;;;;;;11.15;4.05;;;10.80;90.20;;;;;;4990825;28;20034;-75
2022/12/19 10:02:19;;;;;;;7.60;4.47;;;10.90;90.10;;;;;;4985068;28;20124;-74
2022/12/19 10:04:52;;;;;;;7.78;4.15;;;10.90;90.10;;;;;;4975517;28;20054;-78
2022/12/19 10:07:18;;;;;;;8.65;4.28;;;10.90;90.30;;;;;;4976710;28;20085;-78
2022/12/19 10:09:45;;;;;;;7.13;2.95;;;10.90;90.40;;;;;;4981011;28;20486;-77
2022/12/19 10:12:25;;;;;;;6.20;3.45;;;11.00;90.20;;;;;;4981398;28;20049;-79
2022/12/19 10:15:28;;;;;;;6.85;4.03;;;11.00;90.10;;;;;;4981833;28;20042;-78
2022/12/19 10:18:07;;;;;;;8.90;4.15;;;11.00;90.10;;;;;;4985281;28;20030;-77
2022/12/19 10:20:37;;;;;;;10.38;3.85;;;11.00;90.10;;;;;;4981689;28;20675;-79
2022/12/19 10:23:25;;;;;;;7.03;3.95;;;11.10;90.10;;;;;;4982089;28;20086;-79
2022/12/19 10:26:04;;;;;;;4.03;3.05;;;11.20;89.90;;;;;;4985528;28;20089;-78
2022/12/19 10:28:49;;;;;;;7.55;3.55;;;11.20;90.00;;;;;;4985086;28;20019;-79
2022/12/19 10:31:29;;;;;;;5.90;3.40;;;11.20;89.90;;;;;;4985066;28;20068;-79
2022/12/19 10:34:16;;;;;;;8.27;2.75;;;11.30;89.80;;;;;;4987349;28;20038;-79
2022/12/19 10:36:44;;;;;;;5.95;3.22;;;11.30;89.80;;;;;;4989746;28;20033;-79
2022/12/19 10:39:40;;;;;;;7.80;3.33;;;11.30;89.60;;;;;;4986920;28;20038;-79
2022/12/19 10:42:24;;;;;;;6.07;2.85;;;11.40;89.70;;;;;;4944772;28;20061;-79
2022/12/19 10:44:52;;;;;;;4.80;3.17;;;11.40;89.50;;;;;;4986770;28;20045;-79
2022/12/19 10:47:18;;;;;;;7.93;2.72;;;11.40;89.60;;;;;;4988060;28;20105;-79
2022/12/19 10:49:44;;;;;;;8.18;3.33;;;11.50;89.60;;;;;;4984889;28;20070;-79
2022/12/19 10:52:11;;;;;;;6.90;3.28;;;11.50;89.50;;;;;;4985579;28;20126;-79
2022/12/19 10:54:37;;;;;;;9.65;4.18;;;11.60;89.50;;;;;;4988272;28;20513;-79
2022/12/19 10:57:28;;;;;;;5.30;2.70;;;11.70;89.40;;;;;;4985602;28;20027;-79
2022/12/19 11:00:02;;;;;;;8.68;4.70;;;11.80;89.20;;;;;;4983322;28;20030;-79
2022/12/19 11:02:34;;;;;;;11.05;3.92;;;11.80;89.10;;;;;;5000382;28;20026;-78
2022/12/19 11:05:01;;;;;;;4.80;3.05;;;11.80;89.20;;;;;;4988277;28;20035;-79
2022/12/19 11:07:26;;;;;;;5.88;3.15;;;11.80;88.90;;;;;;4985627;28;20050;-79
2022/12/19 11:09:52;;;;;;;5.05;2.65;;;11.80;89.00;;;;;;4986324;28;20101;-79
2022/12/19 11:12:18;;;;;;;5.20;3.03;;;11.80;89.20;;;;;;4985602;28;20030;-79
2022/12/19 11:14:51;;;;;;;9.23;3.47;;;11.80;89.10;;;;;;4985184;28;20556;-80
2022/12/19 11:17:24;;;;;;;6.32;2.63;;;11.80;88.90;;;;;;4986093;28;20487;-79
2022/12/19 11:19:50;;;;;;;7.97;3.47;;;11.80;88.90;;;;;;4982767;28;20109;-80
2022/12/19 11:22:23;;;;;;;7.22;3.78;;;11.90;89.00;;;;;;4987262;28;20701;-79
2022/12/19 11:24:52;;;;;;;9.90;3.40;;;11.90;89.00;;;;;;4985791;28;20042;-79
2022/12/19 11:27:42;;;;;;;8.40;3.53;;;11.90;89.00;;;;;;4986305;28;20027;-79
2022/12/19 11:30:14;;;;;;;6.47;3.40;;;11.90;88.90;;;;;;4981748;28;20034;-79
2022/12/19 11:32:45;;;;;;;6.68;3.65;;;12.00;88.90;;;;;;4987103;28;20030;-79
2022/12/19 11:35:19;;;;;;;5.63;3.80;;;12.10;88.90;;;;;;4985561;28;20022;-79
2022/12/19 11:38:12;;;;;;;10.00;2.90;;;12.20;88.50;;;;;;4984341;28;20019;-79
2022/12/19 11:40:44;;;;;;;7.15;2.67;;;12.30;88.50;;;;;;4981728;28;20039;-79
2022/12/19 11:43:22;;;;;;;6.60;3.38;;;12.40;88.40;;;;;;4984610;28;20023;-79
2022/12/19 11:45:56;;;;;;;5.30;3.17;;;12.50;88.20;;;;;;4984730;28;20030;-79
2022/12/19 11:48:24;;;;;;;6.95;3.20;;;12.40;87.90;;;;;;4987909;28;20037;-79
2022/12/19 11:50:54;;;;;;;8.45;3.90;;;12.50;88.00;;;;;;4989056;28;20391;-80
2022/12/19 11:53:26;;;;;;;;;;;12.70;88.10;;;;;;4988494;28;20026;-79
2022/12/19 11:55:58;;;;;;;5.50;3.15;;;12.80;87.90;;;;;;4986555;28;20307;-79
2022/12/19 11:58:29;;;;;;;6.72;3.25;;;12.90;87.50;;;;;;4986742;28;20015;-79
2022/12/19 12:01:20;;;;;;;8.13;3.70;;;12.90;87.30;;;;;;4983634;28;20098;-79
2022/12/19 12:03:49;;;;;;;9.00;3.75;;;13.00;87.40;;;;;;4970796;28;20035;-79
2022/12/19 12:06:18;;;;;;;4.95;2.28;;;12.90;87.30;;;;;;4968214;28;20081;-79
2022/12/19 12:09:16;;;;;;;9.40;3.53;;;13.00;87.20;;;;;;4966390;28;20499;-79
2022/12/19 12:11:53;;;;;;;6.07;3.22;;;13.00;87.00;;;;;;4928346;28;20039;-80
2022/12/19 12:14:45;;;;;;;7.97;3.30;;;12.90;87.00;;;;;;4966354;28;20110;-80
2022/12/19 12:17:25;;;;;;;7.35;4.28;;;12.80;87.10;;;;;;4967214;28;20034;-79
2022/12/19 12:20:08;;;;;;;3.70;2.35;;;12.80;87.50;;;;;;4966622;28;20037;-80
2022/12/19 12:22:40;;;;;;;12.35;2.90;;;12.70;87.40;;;;;;4972973;28;20038;-80
2022/12/19 12:25:50;;;;;;;6.80;3.55;;;12.70;87.70;;;;;;4975589;28;20031;-80
2022/12/19 12:28:40;;;;;;;6.20;2.95;;;12.70;87.80;;;;;;4975110;28;20557;-80
2022/12/19 12:31:14;;;;;;;8.63;3.25;;;12.80;87.80;;;;;;4971794;28;20038;-80
2022/12/19 12:33:49;;;;;;;3.22;1.90;;;12.80;87.70;;;;;;4974317;28;20165;-80
2022/12/19 12:36:40;;;;;;;9.57;3.45;;;12.70;87.80;;;;;;4977302;28;20023;-79
2022/12/19 12:39:32;;;;;;;6.57;2.70;;;12.90;87.70;;;;;;4965460;28;20035;-80
2022/12/19 12:42:36;;;;;;;15.25;2.92;;;13.00;87.30;;;;;;4968455;28;20050;-80
2022/12/19 12:45:20;;;;;;;5.32;3.10;;;13.00;87.20;;;;;;4966825;28;20492;-79
2022/12/19 12:47:50;;;;;;;11.07;3.72;;;13.20;86.90;;;;;;4970628;28;20031;-82
2022/12/19 12:50:18;;;;;;;2.83;2.23;;;13.20;86.90;;;;;;4958919;28;20023;-80
2022/12/19 12:52:47;;;;;;;8.68;3.33;;;13.20;86.60;;;;;;4974906;28;20278;-79
2022/12/19 12:55:31;;;;;;;10.30;3.38;;;13.10;86.60;;;;;;4966591;28;20054;-78
2022/12/19 12:57:58;;;;;;;7.22;3.47;;;13.10;86.70;;;;;;4967377;28;20486;-78
2022/12/19 13:00:28;;;;;;;3.92;2.17;;;13.00;86.70;;;;;;4966666;28;20027;-79
2022/12/19 13:03:16;;;;;;;9.07;3.33;;;13.00;86.80;;;;;;4968757;28;20027;-80
2022/12/19 13:05:45;;;;;;;7.38;2.70;;;12.90;86.80;;;;;;4968388;28;20034;-80
2022/12/19 13:08:34;;;;;;;9.20;3.05;;;13.00;86.90;;;;;;4967435;28;20034;-79
2022/12/19 13:12:58;;;;;;;7.43;2.67;;;13.00;86.80;;;;;;4969546;28;20038;-82
2022/12/19 13:14:00;;;;;;;11.70;3.50;;;13.00;86.60;;;;;;4965899;28;20086;-79
2022/12/19 13:16:43;;;;;;;7.85;3.00;;;13.00;86.60;;;;;;4965451;28;20039;-79
2022/12/19 13:19:27;;;;;;;6.60;2.60;;;13.10;86.50;;;;;;4967632;28;20057;-79
2022/12/19 13:22:02;;;;;;;12.02;3.13;;;13.10;86.60;;;;;;4966934;28;20034;-79
2022/12/19 13:24:40;;;;;;;7.10;2.55;;;13.20;86.40;;;;;;4964027;28;20035;-79
2022/12/19 13:27:18;;;;;;;6.03;2.40;;;13.20;86.40;;;;;;4963297;28;20069;-79
2022/12/19 13:29:59;;;;;;;4.70;2.88;;;13.30;86.40;;;;;;4965731;28;20020;-79
2022/12/19 13:32:32;;;;;;;9.43;3.25;;;13.30;86.40;;;;;;4964076;28;20047;-79
2022/12/19 13:35:03;;;;;;;8.35;3.00;;;13.50;86.10;;;;;;4969705;28;20024;-79
2022/12/19 13:37:42;;;;;;;4.13;1.92;;;13.60;85.70;;;;;;4964923;28;20485;-80
2022/12/19 13:40:32;;;;;;;10.52;2.97;;;13.80;85.50;;;;;;4961546;28;20110;-80
2022/12/19 13:46:23;;;;;;;8.52;3.80;;;13.90;85.10;;;;;;4958930;28;20425;-80
2022/12/19 13:48:52;;;;;;;7.05;3.08;;;13.80;85.30;;;;;;4971092;28;20035;-79
2022/12/19 13:51:18;;;;;;;9.70;2.55;;;13.70;85.10;;;;;;4963783;28;20439;-79
2022/12/19 13:53:43;;;;;;;7.07;3.17;;;13.70;85.30;;;;;;4964244;28;20097;-79
2022/12/19 13:56:17;;;;;;;11.90;3.13;;;13.70;85.60;;;;;;4963273;28;20038;-79
2022/12/19 13:58:49;;;;;;;5.43;2.75;;;13.70;85.50;;;;;;4958326;28;20394;-79
2022/12/19 14:01:21;;;;;;;9.93;4.43;;;13.60;85.30;;;;;;4959737;28;20035;-79
2022/12/19 14:03:49;;;;;;;5.88;2.45;;;13.60;85.50;;;;;;4959408;28;20047;-79
2022/12/19 14:06:28;;;;;;;9.82;2.65;;;13.60;85.40;;;;;;4961816;28;20448;-79
2022/12/19 14:09:05;;;;;;;5.75;2.95;;;13.50;85.30;;;;;;4973086;28;20019;-79
2022/12/19 14:11:33;;;;;;;9.52;3.22;;;13.60;85.80;;;;;;4961909;28;20038;-79
2022/12/19 14:16:45;;;;;;;5.63;2.53;;;13.80;85.30;;;;;;4961419;28;20469;-79
2022/12/19 14:19:26;;;;;;;8.18;2.53;;;13.90;85.10;;;;;;4961727;28;20311;-79
2022/12/19 14:21:52;;;;;;;10.55;3.80;;;13.80;84.50;;;;;;4962230;28;20038;-79
2022/12/19 14:24:21;;;;;;;11.52;2.83;;;13.80;84.80;;;;;;4965377;28;20030;-79
2022/12/19 14:26:57;;;;;;;11.00;3.17;;;13.80;84.80;;;;;;4974883;28;20109;-79
2022/12/19 14:29:32;;;;;;;10.05;2.97;;;13.80;84.70;;;;;;4961385;28;20023;-79
2022/12/19 14:31:59;;;;;;;11.05;3.58;;;13.80;84.90;;;;;;4961939;28;20035;-79
2022/12/19 14:34:28;;;;;;;13.88;3.63;;;13.70;85.10;;;;;;4966180;28;20077;-79
2022/12/19 14:36:56;;;;;;;11.00;2.53;;;13.70;84.90;;;;;;4978535;28;20121;-79
2022/12/19 14:39:27;;;;;;;5.43;2.35;;;13.70;85.10;;;;;;4959626;28;20039;-79
2022/12/19 14:44:53;;;;;;;9.90;3.38;;;13.70;85.30;;;;;;4967859;28;20525;-78
2022/12/19 14:47:21;;;;;;;5.65;1.98;;;13.70;85.10;;;;;;4962754;28;20031;-78
2022/12/19 14:49:47;;;;;;;9.88;2.72;;;13.70;85.30;;;;;;4963489;28;20059;-78
2022/12/19 14:52:38;;;;;;;9.68;3.08;;;13.70;85.10;;;;;;4963908;28;20054;-79
2022/12/19 14:55:29;;;;;;;11.07;3.47;;;13.70;85.00;;;;;;4962592;28;20505;-79
2022/12/19 14:57:57;;;;;;;11.85;3.33;;;13.70;85.00;;;;;;4967705;28;21584;-78
2022/12/19 15:00:31;;;;;;;14.55;3.50;;;13.80;85.10;;;;;;4962103;28;20031;-78
2022/12/19 15:03:00;;;;;;;13.00;3.67;;;13.80;85.20;;;;;;4963159;28;20035;-78
2022/12/19 15:05:27;;;;;;;6.70;2.63;;;13.80;85.40;;;;;;4963109;28;20031;-78
2022/12/19 15:07:56;;;;;;;7.28;3.40;;;13.80;85.30;;;;;;4966064;28;20154;-78
2022/12/19 15:10:26;;;;;;;9.65;3.20;;;13.90;85.20;;;;;;4960878;28;20035;-78
2022/12/19 15:15:50;;;;;;;5.93;2.45;;;13.80;85.00;;;;;;4964659;28;20414;-78
2022/12/19 15:18:20;;;;;;;11.77;3.40;;;13.80;85.40;;;;;;4963367;28;20042;-78
2022/12/19 15:20:46;;;;;;;7.30;2.88;;;13.70;85.20;;;;;;4959663;28;20451;-77
2022/12/19 15:23:12;;;;;;;7.90;2.88;;;13.70;85.40;;;;;;4967060;28;20570;-78
2022/12/19 15:25:38;;;;;;;12.55;3.00;;;13.70;85.40;;;;;;4966321;28;20117;-78
2022/12/19 15:28:26;;;;;;;6.70;2.20;;;13.70;85.40;;;;;;4969584;28;20163;-78
2022/12/19 15:31:01;;;;;;;13.27;3.28;;;13.70;85.40;;;;;;4964097;28;20102;-78
2022/12/19 15:33:26;;;;;;;7.97;2.78;;;13.70;85.40;;;;;;4975258;28;20033;-77
2022/12/19 15:35:52;;;;;;;12.10;3.00;;;13.70;85.60;;;;;;4976337;28;20030;-78
2022/12/19 15:38:18;;;;;;;8.90;2.60;;;13.70;85.70;;;;;;4976241;28;20035;-78
2022/12/19 15:40:44;;;;;;;7.32;3.08;;;13.70;85.40;;;;;;4972667;28;20031;-77
2022/12/19 15:43:30;;;;;;;7.70;2.90;;;13.70;85.60;;;;;;4969762;28;20086;-78
2022/12/19 15:45:58;;;;;;;8.23;2.97;;;13.60;85.50;;;;;;4974932;28;20073;-78
2022/12/19 15:48:24;;;;;;;5.90;2.00;;;13.50;85.10;;;;;;4963516;28;20019;-78
2022/12/19 15:50:50;;;;;;;11.32;3.13;;;13.50;85.50;;;;;;4975009;28;20039;-77
2022/12/19 15:53:25;;;;;;;8.13;2.95;;;13.50;85.20;;;;;;4974011;28;20054;-77
2022/12/19 15:55:52;;;;;;;12.15;2.42;;;13.50;85.50;;;;;;4976509;28;20035;-77
2022/12/19 15:58:18;;;;;;;8.90;3.00;;;13.50;85.10;;;;;;4976314;28;20514;-78
2022/12/19 16:00:56;;;;;;;12.27;3.70;;;13.50;85.00;;;;;;4977537;28;20105;-77
2022/12/19 16:03:24;;;;;;;6.55;2.70;;;13.40;85.20;;;;;;4977506;28;20031;-78
2022/12/19 16:05:50;;;;;;;5.55;2.25;;;13.40;85.10;;;;;;4975571;28;20035;-77
2022/12/19 16:08:18;;;;;;;7.80;2.55;;;13.40;84.70;;;;;;4976715;28;20055;-78
2022/12/19 16:10:47;;;;;;;9.93;3.72;;;13.30;85.00;;;;;;4971683;28;20474;-77
2022/12/19 16:13:23;;;;;;;10.07;2.70;;;13.40;85.20;;;;;;4978273;28;20046;-77
2022/12/19 16:15:50;;;;;;;12.35;3.13;;;13.40;84.70;;;;;;4981152;28;20417;-78
2022/12/19 16:18:16;;;;;;;7.93;2.85;;;13.30;84.50;;;;;;4975276;28;20031;-78
2022/12/19 16:20:42;;;;;;;11.35;3.42;;;13.30;85.10;;;;;;4977554;28;20031;-77
2022/12/19 16:23:08;;;;;;;9.85;2.97;;;13.30;84.60;;;;;;4977228;28;20573;-77
2022/12/19 16:25:39;;;;;;;11.25;2.92;;;13.30;84.50;;;;;;4966121;28;20045;-78
2022/12/19 16:28:07;;;;;;;8.57;2.88;;;13.30;84.60;;;;;;4968980;28;20027;-78
2022/12/19 16:30:33;;;;;;;8.88;2.70;;;13.40;84.70;;;;;;4964323;28;20049;-77
2022/12/19 16:33:00;;;;;;;9.68;2.80;;;13.30;84.30;;;;;;4974792;28;20402;-77
2022/12/19 16:35:27;;;;;;;10.45;2.58;;;13.30;84.60;;;;;;4975597;28;20430;-77
2022/12/19 16:37:55;;;;;;;11.23;2.42;;;13.30;84.60;;;;;;4977163;28;20037;-77
2022/12/19 16:40:26;;;;;;;5.05;2.78;;;13.20;83.80;;;;;;4975672;28;20046;-78
2022/12/19 16:43:12;;;;;;;6.60;3.35;;;13.30;84.40;;;;;;4972363;28;20105;-76
2022/12/19 16:45:38;;;;;;;6.00;3.08;;;13.20;84.70;;;;;;4969422;28;20030;-78
2022/12/19 16:48:18;;;;;;;7.18;2.78;;;13.20;84.40;;;;;;4968933;28;20565;-78
2022/12/19 16:50:43;;;;;;;11.48;3.72;;;13.20;84.40;;;;;;4969163;28;20421;-80
2022/12/19 16:53:09;;;;;;;8.52;3.88;;;13.20;84.80;;;;;;4967605;28;20118;-78
2022/12/19 16:55:35;;;;;;;6.13;3.83;;;13.20;84.90;;;;;;4971743;28;20058;-77
2022/12/19 16:58:00;;;;;;;10.15;3.50;;;13.20;85.00;;;;;;4958526;28;20046;-78
2022/12/19 17:00:26;;;;;;;5.60;2.65;;;13.10;84.90;;;;;;4972803;28;20027;-78
2022/12/19 17:02:57;;;;;;;8.02;2.35;;;13.20;85.00;;;;;;4959976;28;20049;-78
2022/12/19 17:05:26;;;;;;;9.98;3.58;;;13.20;85.00;;;;;;4956443;28;21604;-77
2022/12/19 17:07:52;;;;;;;11.90;2.75;;;13.10;85.40;;;;;;4958637;28;20022;-78
2022/12/19 17:10:19;;;;;;;8.70;3.08;;;13.10;85.00;;;;;;4959051;28;20055;-78
2022/12/19 17:12:45;;;;;;;9.30;3.97;;;13.10;85.60;;;;;;4959197;28;20054;-79
2022/12/19 17:15:30;;;;;;;14.60;3.75;;;13.10;85.70;;;;;;4958784;28;20415;-79
2022/12/19 17:17:58;;;;;;;18.90;4.07;;;13.10;85.20;;;;;;4957609;28;20085;-79
2022/12/19 17:20:26;;;;;;;7.57;2.30;;;13.10;85.30;;;;;;4961277;28;20062;-79
2022/12/19 17:23:17;;;;;;;7.50;3.83;;;13.10;85.20;;;;;;4960038;28;20527;-79
2022/12/19 17:25:42;;;;;;;;;;;13.20;85.30;;;;;;4957867;28;20082;-78
2022/12/19 17:28:08;;;;;;;6.65;2.83;;;13.20;85.40;;;;;;4956613;28;20394;-79
2022/12/19 17:30:35;;;;;;;4.85;1.92;;;13.10;85.40;;;;;;4959658;28;20126;-77
2022/12/19 17:33:02;;;;;;;7.25;3.22;;;13.10;85.40;;;;;;4953354;28;20836;-78
2022/12/19 17:35:31;;;;;;;11.57;3.40;;;13.20;85.60;;;;;;4956831;28;20046;-76
2022/12/19 17:37:57;;;;;;;8.02;2.28;;;13.20;85.70;;;;;;4969426;28;20035;-79
2022/12/19 17:40:36;;;;;;;4.03;1.98;;;13.20;85.60;;;;;;4960134;28;20766;-82
2022/12/19 17:43:02;;;;;;;5.10;2.33;;;13.20;85.60;;;;;;4958060;28;20031;-78
2022/12/19 17:45:29;;;;;;;6.97;2.88;;;13.20;85.70;;;;;;4971552;28;20497;-79
2022/12/19 17:47:58;;;;;;;6.13;3.33;;;13.30;86.00;;;;;;4968086;28;20078;-78
2022/12/19 17:50:27;;;;;;;7.13;2.55;;;13.20;86.00;;;;;;4963488;28;20093;-84
2022/12/19 17:52:54;;;;;;;6.25;3.38;;;13.30;86.20;;;;;;4964432;28;20438;-80
2022/12/19 17:55:28;;;;;;;10.70;2.67;;;13.30;86.40;;;;;;4955266;28;20066;-77
2022/12/19 17:57:54;;;;;;;4.22;2.17;;;13.20;86.70;;;;;;4973067;28;20058;-80
2022/12/19 18:00:27;;;;;;;5.40;2.40;;;13.30;87.10;;;;;;4960947;28;20105;-78
2022/12/19 18:02:58;;;;;;;8.23;2.97;;;13.30;87.30;;;;;;4956107;28;20026;-78
2022/12/19 18:05:27;;;;;;;9.38;2.58;;;13.20;87.50;;;;;;4957199;28;20054;-77
2022/12/19 18:07:54;;;;;;;7.18;2.67;;;13.30;87.80;;;;;;4966128;28;20507;-75
2022/12/19 18:10:25;;;;;;;13.27;3.90;;;13.20;88.10;;;;;;4973523;28;20037;-75
2022/12/19 18:12:52;;;;;;;9.15;2.97;;;13.20;88.40;;;;;;4970706;28;20588;-76
2022/12/19 18:15:20;;;;;;;6.78;2.80;;;13.20;88.80;;;;;;4973134;28;20023;-77
2022/12/19 18:17:46;;;;;;;12.65;3.35;;;13.20;89.00;;;;;;4964114;28;20030;-76
2022/12/19 18:20:26;;;;;;;8.95;3.58;;;13.20;89.20;;;;;;4967623;28;20031;-77
2022/12/19 18:22:53;;;;;;;9.85;3.05;;;13.20;89.20;;;;;;4977501;28;20096;-77
2022/12/19 18:25:34;;;;;;;8.98;3.92;;;13.20;89.40;;;;;;4962459;28;20059;-79
2022/12/19 18:28:00;;;;;;;21.90;4.10;;;13.10;89.50;;;;;;4974993;28;20027;-76
2022/12/19 18:30:28;;;;;;;9.68;3.72;;;13.20;89.60;;;;;;4975791;28;20171;-76
2022/12/19 18:33:00;;;;;;;5.88;2.88;;;13.20;89.70;;;;;;4981077;28;20019;-76
2022/12/19 18:35:36;;;;;;;10.98;3.70;;;13.20;89.70;;;;;;4967378;28;20046;-78
2022/12/19 18:38:10;;;;;;;10.98;3.25;;;13.30;89.70;;;;;;4963514;28;20035;-77
2022/12/19 18:40:36;;;;;;;15.88;3.90;;;13.30;89.60;;;;;;4971275;28;20069;-77
2022/12/19 18:43:14;;;;;;;11.52;3.78;;;13.20;89.70;;;;;;4976769;28;20035;-78
2022/12/19 18:45:48;;;;;;;8.50;3.50;;;13.30;89.70;;;;;;4978034;28;20034;-84
2022/12/19 18:48:49;;;;;;;9.35;2.72;;;13.30;89.80;;;;;;4979583;28;20030;-76